Weather History for Albion, NE

Change the Weather History Date:

Saturday, October 20, 2012

  Actual Average (KOFK) Record (KOFK)
Temperature  
Mean Temperature 51 °F 50 °F  
Max Temperature 72 °F 62 °F 90 °F (1947)
Min Temperature 30 °F 37 °F 15 °F (1989)
Degree Days  
Heating Degree Days 14 16  
Month to date heating degree days 244  
Since 1 July heating degree days 386  
Cooling Degree Days 0 0  
Month to date cooling degree days 8  
Year to date cooling degree days 914  
Growing Degree Days 1 (Base 50)    
Moisture  
Dew Point 32 °F    
Average Humidity 57    
Maximum Humidity 95    
Minimum Humidity 19    
Precipitation  
Precipitation 0.00 in 0.06 in 0.70 in (1935)
Month to date precipitation 1.49  
Year to date precipitation 24.71  
Snow  
Snow 0.00 in 0.10 in - ()
Month to date snowfall 0.3  
Since 1 July snowfall 0.3  
Snow Depth -    
Sea Level Pressure  
Sea Level Pressure 29.72 in    
Wind  
Wind Speed 5 mph (SE)    
Max Wind Speed 16 mph    
Max Gust Speed 21 mph    
Visibility 9 miles    
Events      
T = Trace of Precipitation, MM = Missing Value Source: NWS Daily Summary

Daily Weather History Graph

Daily Weather History Graph

Search for Another Location

Airport:

Trip Planner

Search our weather history database for the weather conditions in past years. The results will help you decide how hot, cold, wet, or windy it might be!

Date:

Astronomy

Oct. 20, 2012 Rise Set
Actual Time 7:50 AM CDT 6:42 PM CDT
Civil Twilight 7:22 AM CDT 7:10 PM CDT
Nautical Twilight 6:50 AM CDT 7:42 PM CDT
Astronomical Twilight 6:17 AM CDT 8:15 PM CDT
Moon 1:30 PM CDT 11:27 PM CDT
Length of Visible Light 11h 48m
Length of Day
10h 51m
Waxing Crescent, 34% of the Moon is Illuminated
Oct 20
Waxing Crescent
Oct 21
First Quarter
Oct 29
Full
Nov 6
Last Quarter
Nov 13
New

Hourly Weather History & Observations

Time (CDT) Temp. Windchill Dew Point Humidity Pressure Visibility Wind Dir Wind Speed Gust Speed Precip Events Conditions
12:15 AM 34.9 °F - 30.2 °F 83% 29.79 in 10.0 mi Calm Calm - N/A   Clear
12:35 AM 35.2 °F - 30.2 °F 82% 29.79 in 10.0 mi Calm Calm - N/A   Clear
12:55 AM 39.0 °F - 32.5 °F 78% 29.79 in 10.0 mi Calm Calm - N/A   Clear
1:15 AM 37.6 °F - 32.2 °F 81% 29.79 in 10.0 mi Calm Calm - N/A   Clear
1:35 AM 38.7 °F - 32.9 °F 80% 29.79 in 10.0 mi Calm Calm - N/A   Clear
1:55 AM 39.2 °F - 33.3 °F 79% 29.79 in 10.0 mi Calm Calm - N/A   Clear
2:15 AM 37.6 °F - 32.0 °F 80% 29.79 in 10.0 mi Calm Calm - N/A   Clear
2:35 AM 38.5 °F - 32.9 °F 80% 29.79 in 10.0 mi Calm Calm - N/A   Clear
2:55 AM 39.2 °F 37.0 °F 33.8 °F 81% 29.79 in 10.0 mi SE 3.5 mph - N/A   Clear
3:15 AM 39.0 °F 35.7 °F 33.6 °F 81% 29.78 in 10.0 mi SE 4.6 mph - N/A   Clear
3:35 AM 38.1 °F 33.7 °F 33.6 °F 84% 29.78 in 10.0 mi ESE 5.8 mph - N/A   Clear
3:55 AM 36.9 °F 33.1 °F 32.4 °F 84% 29.78 in 10.0 mi ESE 4.6 mph - N/A   Clear
4:15 AM 34.3 °F 30.2 °F 31.3 °F 89% 29.77 in 10.0 mi SE 4.6 mph - N/A   Clear
4:35 AM 34.0 °F 31.0 °F 31.3 °F 90% 29.77 in 10.0 mi ESE 3.5 mph - N/A   Clear
4:55 AM 35.6 °F 31.7 °F 32.4 °F 88% 29.77 in 10.0 mi SE 4.6 mph - N/A   Clear
5:15 AM 35.6 °F 32.8 °F 32.5 °F 89% 29.77 in 10.0 mi SE 3.5 mph - N/A   Clear
5:35 AM 32.0 °F 28.7 °F 29.1 °F 89% 29.77 in 10.0 mi SE 3.5 mph - N/A   Clear
5:55 AM 30.4 °F 25.6 °F 28.0 °F 91% 29.76 in 7.0 mi ESE 4.6 mph - N/A   Clear
6:15 AM 34.9 °F 29.9 °F 32.5 °F 91% 29.76 in 10.0 mi ESE 5.8 mph - N/A   Clear
6:35 AM 33.4 °F 30.4 °F 31.3 °F 92% 29.76 in 7.0 mi SE 3.5 mph - N/A   Clear
6:55 AM 31.1 °F 25.4 °F 29.1 °F 92% 29.76 in 7.0 mi SE 5.8 mph - N/A   Clear
7:15 AM 32.4 °F 27.9 °F 30.7 °F 94% 29.76 in 5.0 mi SE 4.6 mph - N/A   Clear
7:35 AM 31.1 °F 26.4 °F 29.3 °F 93% 29.76 in 4.0 mi SE 4.6 mph - N/A   Clear
7:55 AM 31.1 °F 27.7 °F 29.5 °F 94% 29.75 in 3.0 mi SE 3.5 mph - N/A   Clear
8:15 AM 31.3 °F 26.6 °F 29.5 °F 93% 29.76 in 3.0 mi ESE 4.6 mph - N/A   Clear
8:35 AM 32.9 °F 29.8 °F 31.6 °F 95% 29.76 in 3.0 mi SE 3.5 mph - N/A   Clear
8:55 AM 35.8 °F 31.9 °F 33.8 °F 92% 29.76 in 4.0 mi SE 4.6 mph - N/A   Clear
9:15 AM 37.8 °F 33.3 °F 35.1 °F 90% 29.77 in 5.0 mi SSE 5.8 mph - N/A   Clear
9:35 AM 41.4 °F 37.6 °F 37.0 °F 85% 29.76 in 10.0 mi SSE 5.8 mph - N/A   Clear
9:55 AM 45.0 °F 40.6 °F 37.9 °F 76% 29.76 in 10.0 mi SSE 8.1 mph - N/A   Clear
10:15 AM 48.6 °F - 38.8 °F 69% 29.76 in 10.0 mi SSE 6.9 mph - N/A   Clear
10:35 AM 52.3 °F - 39.0 °F 61% 29.76 in 10.0 mi South 11.5 mph - N/A   Clear
10:55 AM 54.5 °F - 36.5 °F 51% 29.75 in 10.0 mi South 11.5 mph - N/A   Clear
11:15 AM 56.5 °F - 34.9 °F 44% 29.75 in 10.0 mi SSE 12.7 mph - N/A   Clear
11:35 AM 57.6 °F - 32.2 °F 38% 29.74 in 10.0 mi SSE 10.4 mph - N/A   Clear
11:55 AM 59.2 °F - 30.6 °F 34% 29.73 in 10.0 mi SSE 11.5 mph - N/A   Clear
12:15 PM 60.8 °F - 29.7 °F 31% 29.74 in 10.0 mi SSE 10.4 mph 16.1 mph N/A   Clear
12:35 PM 63.0 °F - 28.6 °F 27% 29.73 in 10.0 mi South 11.5 mph - N/A   Clear
12:55 PM 64.0 °F - 27.5 °F 25% 29.73 in 10.0 mi South 12.7 mph 17.3 mph N/A   Clear
1:15 PM 65.1 °F - 27.9 °F 25% 29.72 in 10.0 mi South 12.7 mph - N/A   Clear
1:35 PM 66.0 °F - 27.5 °F 23% 29.70 in 10.0 mi South 12.7 mph 17.3 mph N/A   Clear
1:55 PM 67.5 °F - 26.6 °F 22% 29.69 in 10.0 mi South 15.0 mph - N/A   Clear
2:15 PM 68.2 °F - 27.3 °F 22% 29.67 in 10.0 mi SSE 13.8 mph - N/A   Clear
2:35 PM 70.0 °F - 28.0 °F 21% 29.67 in 10.0 mi SSE 13.8 mph 17.3 mph N/A   Clear
2:55 PM 70.2 °F - 27.9 °F 21% 29.64 in 10.0 mi SSE 16.1 mph 20.7 mph N/A   Clear
3:15 PM 70.9 °F - 27.5 °F 20% 29.64 in 10.0 mi SSE 15.0 mph - N/A   Clear
3:35 PM 71.4 °F - 27.0 °F 19% 29.64 in 10.0 mi SSE 15.0 mph - N/A   Clear
3:55 PM 71.8 °F - 27.0 °F 19% 29.65 in 10.0 mi SSE 13.8 mph 20.7 mph N/A   Clear
4:15 PM 72.3 °F - 27.5 °F 19% 29.64 in 10.0 mi SSE 15.0 mph 19.6 mph N/A   Clear
4:35 PM 71.8 °F - 27.5 °F 19% 29.64 in 10.0 mi South 16.1 mph - N/A   Clear
4:55 PM 71.6 °F - 28.0 °F 20% 29.65 in 10.0 mi SSE 15.0 mph - N/A   Clear
5:15 PM 71.6 °F - 29.3 °F 21% 29.66 in 10.0 mi South 11.5 mph 20.7 mph N/A   Clear
5:35 PM 70.9 °F - 29.7 °F 22% 29.65 in 10.0 mi South 13.8 mph - N/A   Clear
5:55 PM 70.0 °F - 30.7 °F 23% 29.66 in 10.0 mi SSE 11.5 mph - N/A   Clear
6:15 PM 68.7 °F - 31.1 °F 25% 29.66 in 10.0 mi SSE 9.2 mph - N/A   Clear
6:35 PM 65.8 °F - 31.1 °F 27% 29.66 in 10.0 mi SE 8.1 mph - N/A   Clear
6:55 PM 62.4 °F - 31.1 °F 31% 29.65 in 10.0 mi SE 9.2 mph - N/A   Clear
7:15 PM 61.0 °F - 31.6 °F 33% 29.66 in 10.0 mi SE 8.1 mph - N/A   Clear
7:35 PM 58.1 °F - 31.6 °F 37% 29.66 in 10.0 mi SE 9.2 mph - N/A   Clear
7:55 PM 57.4 °F - 32.0 °F 38% 29.66 in 10.0 mi ESE 6.9 mph - N/A   Clear
8:15 PM 57.6 °F - 32.4 °F 39% 29.66 in 10.0 mi ESE 10.4 mph - N/A   Clear
8:35 PM 57.6 °F - 32.9 °F 39% 29.67 in 10.0 mi SE 9.2 mph - N/A   Clear
8:55 PM 56.1 °F - 33.1 °F 42% 29.67 in 10.0 mi SE 8.1 mph - N/A   Clear
9:15 PM 54.9 °F - 33.6 °F 45% 29.66 in 10.0 mi SE 8.1 mph - N/A   Clear
9:35 PM 54.5 °F - 34.7 °F 47% 29.67 in 10.0 mi SE 6.9 mph - N/A   Clear
9:55 PM 52.7 °F - 35.2 °F 52% 29.67 in 10.0 mi SE 6.9 mph - N/A   Clear
10:15 PM 51.1 °F - 35.2 °F 55% 29.68 in 10.0 mi SE 3.5 mph - N/A   Clear
10:35 PM 51.3 °F - 35.8 °F 55% 29.68 in 10.0 mi SE 3.5 mph - N/A   Clear
10:55 PM 50.9 °F - 36.0 °F 57% 29.68 in 10.0 mi SE 4.6 mph - N/A   Clear
11:15 PM 48.7 °F - 36.1 °F 62% 29.68 in 10.0 mi SE 3.5 mph - N/A   Clear
11:35 PM 47.8 °F - 35.6 °F 63% 29.68 in 10.0 mi SE 5.8 mph - N/A   Clear
11:55 PM 47.3 °F - 35.8 °F 64% 29.67 in 10.0 mi SE 4.6 mph - N/A   Clear